Terminal Aerodrome Forecast
Issued by NWS Albuquerque, NM

Home | Current Version | Previous Version | Text Only | Print | Product List | Glossary On
Versions: 1 2 3 4 5 6 7 8 9 10 11 12 13 14 15 16 17 18 19 20 21 22 23 24 25 26 27 28 29 30 31 32 33 34 35 36 37 38 39 40
000
FTUS45 KABQ 181120
TAFABQ
TAF
KABQ 181120Z 1812/1912 36008KT P6SM SCT110
     FM181500 VRB06KT P6SM FEW150
     FM181900 25010G18KT P6SM FEW090
     FM182200 28012G20KT P6SM SCT100
     FM190200 33007KT P6SM FEW120=

USA.gov is the U.S. government's official web portal to all federal, state and local government web resources and services.